Terminal Aerodrome Forecast
Issued by NWS

Home | Current Version | Previous Version | Text Only | Print | Product List | Glossary On
Versions: 1 2 3 4 5 6 7 8 9 10 11 12 13 14 15 16 17 18 19 20 21 22
000
FTUS43 KICT 191725
TAFCNU
TAF
KCNU 191725Z 1918/2018 18018G25KT P6SM VCSH FEW100
     FM191900 18018G25KT P6SM SCT200
     FM200300 17015G23KT P6SM FEW250 WS020/19045KT
     FM200800 18015G23KT P6SM FEW200=

USA.gov is the U.S. government's official web portal to all federal, state and local government web resources and services.